Home > Products > Valid Products > TAF

000
FTUS42 KTAE 242320
TAFABY
TAF
KABY 242320Z 2500/2524 00000KT P6SM BKN200
     FM251000 18007KT P6SM BKN015
     FM251500 21015G25KT P6SM BKN035 BKN150
      TEMPO 2519/2523 4SM TSRA BKN020CB OVC070=



000
FTUS42 KTAE 242320
TAFTLH
TAF
KTLH 242320Z 2500/2524 18007KT P6SM BKN150
     FM250900 10009KT P6SM BKN015 BKN150
     FM251600 20015G20KT P6SM BKN035 BKN150=



000
FTUS42 KTAE 242320
TAFVLD
TAF
KVLD 242320Z 2500/2524 00000KT P6SM SCT200
     FM251000 15004KT P6SM BKN015
     FM251500 21013G18KT P6SM BKN035 BKN150=



000
FTUS42 KTAE 242320
TAFDHN
TAF
KDHN 242320Z 2500/2524 11005KT P6SM BKN150
     FM251000 14009KT P6SM BKN015
     FM251600 20015G25KT P6SM BKN035 BKN150
      TEMPO 2518/2522 4SM TSRA BKN020CB OVC070=



000
FTUS42 KTAE 241730
TAFTLH
TAF
KTLH 241730Z 2418/2518 02006KT P6SM FEW250
     FM250300 14005KT P6SM BKN100
     FM250900 10009KT P6SM OVC015
     FM251600 20015G20KT P6SM BKN030 OVC040=



000
FTUS42 KTAE 241730
TAFABY
TAF
KABY 241730Z 2418/2518 VRB05KT P6SM FEW250
     FM250200 VRB05KT P6SM SCT100 BKN250
     FM251000 19010KT P6SM OVC045
     FM251700 21015G25KT P6SM -SHRA BKN020 OVC030=



000
FTUS42 KTAE 241730
TAFDHN
TAF
KDHN 241730Z 2418/2518 15007KT P6SM FEW250
     FM250000 16007KT P6SM SCT100 BKN250
     FM250900 14009KT P6SM OVC015
     FM251500 20015G25KT P6SM -SHRA BKN030 OVC035=



000
FTUS42 KTAE 241730
TAFVLD
TAF
KVLD 241730Z 2418/2518 14005KT P6SM SKC
     FM250300 15006KT P6SM SCT250
     FM251200 17008KT P6SM OVC035
     FM251700 21013G18KT P6SM OVC030=



000
FTUS42 KTAE 241730
TAFVLD
TAF
KVLD 241730Z 2418/2518 14005KT P6SM SKC
     FM250300 15006KT P6SM SCT250
     FM251200 17008KT P6SM OVC035
     FM251700 21013G18KT P6SM OVC030=



000
FTUS42 KTAE 241730
TAFTLH
TAF
KTLH 241730Z 2418/2518 02006KT P6SM FEW250
     FM250300 14005KT P6SM BKN100
     FM250900 10009KT P6SM OVC015
     FM251600 20015G20KT P6SM BKN030 OVC040=



000
FTUS42 KTAE 241730
TAFABY
TAF
KABY 241730Z 2418/2518 VRB05KT P6SM FEW250
     FM250200 VRB05KT P6SM SCT100 BKN250
     FM251000 19010KT P6SM OVC045
     FM251700 21015G25KT P6SM -SHRA BKN020 OVC030=



000
FTUS42 KTAE 241730
TAFDHN
TAF
KDHN 241730Z 2418/2518 15007KT P6SM FEW250
     FM250000 16007KT P6SM SCT100 BKN250
     FM250900 14009KT P6SM OVC015
     FM251500 20015G25KT P6SM -SHRA BKN030 OVC035=



000
FTUS42 KTAE 241120
TAFVLD
TAF
KVLD 241120Z 2412/2512 03006KT P6SM SCT250
     FM242100 09007KT P6SM SCT250
     FM250600 15006KT P6SM OVC250
     FM250900 13006KT P6SM OVC025=



000
FTUS42 KTAE 241120
TAFABY
TAF
KABY 241120Z 2412/2512 01005KT P6SM SCT250
     FM241500 06008KT P6SM SCT250
     FM242100 11007KT P6SM SCT100 BKN250
     FM250900 14008KT P6SM OVC050=



000
FTUS42 KTAE 241120
TAFTLH
TAF
KTLH 241120Z 2412/2512 00000KT P6SM SCT250
     FM241300 08007KT P6SM SCT250
     FM250300 14005KT P6SM BKN100
     FM250900 10009KT P6SM OVC015=



000
FTUS42 KTAE 241120
TAFVLD
TAF
KVLD 241120Z 2412/2512 03006KT P6SM SCT250
     FM242100 09007KT P6SM SCT250
     FM250600 15006KT P6SM OVC250
     FM250900 13006KT P6SM OVC025=



000
FTUS42 KTAE 241120
TAFTLH
TAF
KTLH 241120Z 2412/2512 00000KT P6SM SCT250
     FM241300 08007KT P6SM SCT250
     FM250300 14005KT P6SM BKN100
     FM250900 10009KT P6SM OVC015=



000
FTUS42 KTAE 241120
TAFDHN
TAF
KDHN 241120Z 2412/2512 02006KT P6SM SCT250
     FM241500 08008KT P6SM SCT250
     FM250000 14007KT P6SM SCT100 BKN250
     FM250900 14009KT P6SM OVC015=



000
FTUS42 KTAE 241120
TAFDHN
TAF
KDHN 241120Z 2412/2512 02006KT P6SM SCT250
     FM241500 08008KT P6SM SCT250
     FM250000 14007KT P6SM SCT100 BKN250
     FM250900 14009KT P6SM OVC015=



000
FTUS42 KTAE 241120
TAFABY
TAF
KABY 241120Z 2412/2512 01005KT P6SM SCT250
     FM241500 06008KT P6SM SCT250
     FM242100 11007KT P6SM SCT100 BKN250
     FM250900 14008KT P6SM OVC050=



000
FTUS42 KTAE 241023 AAB
TAFTLH
TAF AMD
KTLH 241023Z 2410/2506 00000KT P6SM SCT250
     FM241300 08007KT P6SM SCT250
     FM250300 14005KT P6SM BKN250=



000
FTUS42 KTAE 241023 AAB
TAFTLH
TAF AMD
KTLH 241023Z 2410/2506 00000KT P6SM SCT250
     FM241300 08007KT P6SM SCT250
     FM250300 14005KT P6SM BKN250=



000
FTUS42 KTAE 240637 AAA
TAFTLH
TAF AMD
KTLH 240637Z 2407/2506 32003KT P6SM SCT003
      TEMPO 2407/2411 4SM BR BKN003
     FM241100 00000KT 4SM BR BKN004 BKN250
     FM241300 08007KT P6SM SCT250
     FM250300 14005KT P6SM BKN250=



000
FTUS42 KTAE 240637 AAA
TAFTLH
TAF AMD
KTLH 240637Z 2407/2506 32003KT P6SM SCT003
      TEMPO 2407/2411 4SM BR BKN003
     FM241100 00000KT 4SM BR BKN004 BKN250
     FM241300 08007KT P6SM SCT250
     FM250300 14005KT P6SM BKN250=



000
FTUS42 KTAE 240536
TAFTLH
TAF
KTLH 240536Z 2406/2506 32003KT P6SM BKN004
     FM241000 00000KT 4SM BR BKN004 BKN250
     FM241300 08007KT P6SM SCT250
     FM250300 14005KT P6SM BKN250=



000
FTUS42 KTAE 240536
TAFTLH
TAF
KTLH 240536Z 2406/2506 32003KT P6SM BKN004
     FM241000 00000KT 4SM BR BKN004 BKN250
     FM241300 08007KT P6SM SCT250
     FM250300 14005KT P6SM BKN250=



000
FTUS42 KTAE 240536
TAFABY
TAF
KABY 240536Z 2406/2506 36005KT P6SM SCT250
     FM241400 05007KT P6SM SCT250
     FM241800 09007KT P6SM FEW250=



000
FTUS42 KTAE 240536
TAFVLD
TAF
KVLD 240536Z 2406/2506 00000KT P6SM SCT250
     FM240900 00000KT 5SM BR SCT250
     FM241400 09007KT P6SM SCT250=



000
FTUS42 KTAE 240536
TAFDHN
TAF
KDHN 240536Z 2406/2506 04003KT P6SM SCT100
     FM241400 07008KT P6SM SCT250
     FM242100 14006KT P6SM SCT250=



000
FTUS42 KTAE 240536
TAFVLD
TAF
KVLD 240536Z 2406/2506 00000KT P6SM SCT250
     FM240900 00000KT 5SM BR SCT250
     FM241400 09007KT P6SM SCT250=



000
FTUS42 KTAE 240536
TAFABY
TAF
KABY 240536Z 2406/2506 36005KT P6SM SCT250
     FM241400 05007KT P6SM SCT250
     FM241800 09007KT P6SM FEW250=



000
FTUS42 KTAE 240536
TAFDHN
TAF
KDHN 240536Z 2406/2506 04003KT P6SM SCT100
     FM241400 07008KT P6SM SCT250
     FM242100 14006KT P6SM SCT250=



000
FTUS42 KTAE 240526 AAA
TAFTLH
TAF AMD
KTLH 240526Z 2405/2424 32003KT P6SM BKN004
     FM241000 00000KT 4SM BR SCT150
     FM241300 08007KT P6SM FEW040 BKN150=



000
FTUS42 KTAE 232320
TAFDHN
TAF
KDHN 232320Z 2400/2424 35003KT P6SM SCT100
     FM241300 07008KT P6SM SCT030 BKN150=



000
FTUS42 KTAE 232320
TAFABY
TAF
KABY 232320Z 2400/2424 35005KT P6SM BKN150
     FM241300 05007KT P6SM SCT030 BKN150=



000
FTUS42 KTAE 232320
TAFVLD
TAF
KVLD 232320Z 2400/2424 00000KT P6SM SCT150
     FM240900 00000KT 5SM BR SCT150
     FM241300 05005KT P6SM SCT030 BKN150=



000
FTUS42 KTAE 232320
TAFTLH
TAF
KTLH 232320Z 2400/2424 18007KT P6SM SCT040 BKN100
     FM241000 00000KT 4SM BR SCT150
     FM241300 08007KT P6SM FEW040 BKN150=



000
FTUS42 KTAE 231720
TAFDHN
TAF
KDHN 231720Z 2318/2418 VRB03KT P6SM SCT050 BKN200
     FM240400 05006KT P6SM SCT090 BKN200=



000
FTUS42 KTAE 231720
TAFTLH
TAF
KTLH 231720Z 2318/2418 00000KT P6SM BKN200
     FM232100 28010KT P6SM SCT050 BKN200
     FM240100 03003KT P6SM BKN200=



000
FTUS42 KTAE 231720
TAFTLH
TAF
KTLH 231720Z 2318/2418 00000KT P6SM BKN200
     FM232100 28010KT P6SM SCT050 BKN200
     FM240100 03003KT P6SM BKN200=



000
FTUS42 KTAE 231720
TAFVLD
TAF
KVLD 231720Z 2318/2418 VRB03KT P6SM FEW050 BKN200
     FM240800 06005KT 4SM BR BKN015
     FM241300 07006KT P6SM BKN200=



000
FTUS42 KTAE 231720
TAFVLD
TAF
KVLD 231720Z 2318/2418 VRB03KT P6SM FEW050 BKN200
     FM240800 06005KT 4SM BR BKN015
     FM241300 07006KT P6SM BKN200=



000
FTUS42 KTAE 231720
TAFABY
TAF
KABY 231720Z 2318/2418 31006KT P6SM SCT050 BKN200
     FM240400 04005KT P6SM SCT090 BKN200=



000
FTUS42 KTAE 231720
TAFDHN
TAF
KDHN 231720Z 2318/2418 VRB03KT P6SM SCT050 BKN200
     FM240400 05006KT P6SM SCT090 BKN200=



000
FTUS42 KTAE 231720
TAFABY
TAF
KABY 231720Z 2318/2418 31006KT P6SM SCT050 BKN200
     FM240400 04005KT P6SM SCT090 BKN200=



000
FTUS42 KTAE 231150
TAFVLD
TAF
KVLD 231150Z 2312/2412 00000KT 5SM BR BKN015
     FM231300 00000KT P6SM BKN200
     FM231600 VRB03KT P6SM FEW050 BKN200
     FM240800 06005KT 4SM BR BKN015=



000
FTUS42 KTAE 231150
TAFDHN
TAF
KDHN 231150Z 2312/2412 VRB03KT P6SM BKN200
     FM232000 33006KT P6SM FEW050 BKN200
     FM240400 05006KT P6SM SCT090 BKN200=



000
FTUS42 KTAE 231150
TAFTLH
TAF
KTLH 231150Z 2312/2412 00000KT P6SM BKN200
     FM232100 19010KT P6SM SCT050 BKN200
     FM240800 06005KT 4SM BR BKN015=



000
FTUS42 KTAE 231150
TAFABY
TAF
KABY 231150Z 2312/2412 00000KT P6SM BKN200
     FM231600 31006KT P6SM FEW050 BKN200
     FM240400 04005KT P6SM SCT090 BKN200=



000
FTUS42 KTAE 231150
TAFVLD
TAF
KVLD 231150Z 2312/2412 00000KT 5SM BR BKN015
     FM231300 00000KT P6SM BKN200
     FM231600 VRB03KT P6SM FEW050 BKN200
     FM240800 06005KT 4SM BR BKN015=



000
FTUS42 KTAE 231150
TAFABY
TAF
KABY 231150Z 2312/2412 00000KT P6SM BKN200
     FM231600 31006KT P6SM FEW050 BKN200
     FM240400 04005KT P6SM SCT090 BKN200=



000
FTUS42 KTAE 231150
TAFTLH
TAF
KTLH 231150Z 2312/2412 00000KT P6SM BKN200
     FM232100 19010KT P6SM SCT050 BKN200
     FM240800 06005KT 4SM BR BKN015=



000
FTUS42 KTAE 231150
TAFDHN
TAF
KDHN 231150Z 2312/2412 VRB03KT P6SM BKN200
     FM232000 33006KT P6SM FEW050 BKN200
     FM240400 05006KT P6SM SCT090 BKN200=



000
FTUS42 KTAE 230948 AAA
TAFTLH
TAF AMD
KTLH 230948Z 2310/2406 00000KT P6SM BKN200
     FM232100 19010KT P6SM SCT050 BKN200=



000
FTUS42 KTAE 230948 AAA
TAFTLH
TAF AMD
KTLH 230948Z 2310/2406 00000KT P6SM BKN200
     FM232100 19010KT P6SM SCT050 BKN200=



000
FTUS42 KTAE 230522
TAFABY
TAF
KABY 230522Z 2306/2406 00000KT P6SM BKN200
      TEMPO 2310/2312 5SM BR SCT015
     FM231600 31006KT P6SM FEW050 BKN200=



000
FTUS42 KTAE 230522
TAFTLH
TAF
KTLH 230522Z 2306/2406 00000KT P6SM BKN200
     FM230900 VRB03KT 4SM BR BKN015
     FM232100 19010KT P6SM SCT050 BKN200=



000
FTUS42 KTAE 230522
TAFVLD
TAF
KVLD 230522Z 2306/2406 00000KT P6SM BKN200
     FM231000 00000KT 4SM BR BKN015
     FM231600 VRB03KT P6SM FEW050 BKN200=



000
FTUS42 KTAE 230522
TAFDHN
TAF
KDHN 230522Z 2306/2406 VRB03KT P6SM BKN200
      TEMPO 2310/2312 5SM BR SCT015
     FM232000 33006KT P6SM FEW050 BKN200=



000
FTUS42 KTAE 230522
TAFDHN
TAF
KDHN 230522Z 2306/2406 VRB03KT P6SM BKN200
      TEMPO 2310/2312 5SM BR SCT015
     FM232000 33006KT P6SM FEW050 BKN200=



000
FTUS42 KTAE 230522
TAFTLH
TAF
KTLH 230522Z 2306/2406 00000KT P6SM BKN200
     FM230900 VRB03KT 4SM BR BKN015
     FM232100 19010KT P6SM SCT050 BKN200=



000
FTUS42 KTAE 230522
TAFVLD
TAF
KVLD 230522Z 2306/2406 00000KT P6SM BKN200
     FM231000 00000KT 4SM BR BKN015
     FM231600 VRB03KT P6SM FEW050 BKN200=



000
FTUS42 KTAE 230522
TAFABY
TAF
KABY 230522Z 2306/2406 00000KT P6SM BKN200
      TEMPO 2310/2312 5SM BR SCT015
     FM231600 31006KT P6SM FEW050 BKN200=



000
FTUS42 KTAE 222320
TAFVLD
TAF
KVLD 222320Z 2300/2324 VRB03KT P6SM FEW100 SCT250
     FM231100 00000KT 4SM BR OVC015
     FM231500 27003KT P6SM SCT250=



000
FTUS42 KTAE 222320
TAFABY
TAF
KABY 222320Z 2300/2324 29003KT P6SM BKN250
     FM231800 27006KT P6SM OVC100=



000
FTUS42 KTAE 222320
TAFVLD
TAF
KVLD 222320Z 2300/2324 VRB03KT P6SM FEW100 SCT250
     FM231100 00000KT 4SM BR OVC015
     FM231500 27003KT P6SM SCT250=



000
FTUS42 KTAE 222320
TAFDHN
TAF
KDHN 222320Z 2300/2324 27006KT P6SM FEW030 SCT250=



000
FTUS42 KTAE 222320
TAFTLH
TAF
KTLH 222320Z 2300/2324 20009KT P6SM FEW030 SCT250
     FM230900 00000KT 4SM BR SCT250
     FM231500 29002KT P6SM BKN250=



000
FTUS42 KTAE 221723
TAFDHN
TAF
KDHN 221723Z 2218/2318 32006KT P6SM SCT250
     FM221900 27006KT P6SM FEW030 SCT250=



000
FTUS42 KTAE 221723
TAFVLD
TAF
KVLD 221723Z 2218/2318 VRB03KT P6SM FEW100 SCT250
     FM231100 00000KT 4SM BR OVC015
     FM231500 27003KT P6SM SCT250=



000
FTUS42 KTAE 221723
TAFTLH
TAF
KTLH 221723Z 2218/2318 36004KT P6SM SCT250
     FM222000 20009KT P6SM FEW030 SCT250
     FM230900 00000KT 4SM BR SCT250
     FM231500 29002KT P6SM BKN250=



000
FTUS42 KTAE 221723
TAFABY
TAF
KABY 221723Z 2218/2318 29008KT P6SM FEW100 SCT250
     FM222100 29003KT P6SM BKN250=



000
FTUS42 KTAE 221723
TAFABY
TAF
KABY 221723Z 2218/2318 29008KT P6SM FEW100 SCT250
     FM222100 29003KT P6SM BKN250=



000
FTUS42 KTAE 221723
TAFTLH
TAF
KTLH 221723Z 2218/2318 36004KT P6SM SCT250
     FM222000 20009KT P6SM FEW030 SCT250
     FM230900 00000KT 4SM BR SCT250
     FM231500 29002KT P6SM BKN250=



000
FTUS42 KTAE 221723
TAFDHN
TAF
KDHN 221723Z 2218/2318 32006KT P6SM SCT250
     FM221900 27006KT P6SM FEW030 SCT250=



000
FTUS42 KTAE 221723
TAFVLD
TAF
KVLD 221723Z 2218/2318 VRB03KT P6SM FEW100 SCT250
     FM231100 00000KT 4SM BR OVC015
     FM231500 27003KT P6SM SCT250=



000
FTUS42 KTAE 221203 RRA
TAFVLD
TAF
KVLD 221203Z 2212/2312 VRB03KT P6SM FEW100 SCT250=



000
FTUS42 KTAE 221203 RRA
TAFABY
TAF
KABY 221203Z 2212/2312 29006KT P6SM FEW100 SCT250=



000
FTUS42 KTAE 221203 RRA
TAFTLH
TAF
KTLH 221203Z 2212/2312 36004KT P6SM FEW100 SCT250
     FM222000 20009KT P6SM FEW030 SCT250=



000
FTUS42 KTAE 221203 RRA
TAFDHN
TAF
KDHN 221203Z 2212/2312 30004KT P6SM FEW100 SCT250
     FM221900 27006KT P6SM FEW030 SCT250=



000
FTUS42 KTAE 220520
TAFVLD
TAF
KVLD 220520Z 2206/2306 VRB03KT P6SM FEW100 SCT250=



000
FTUS42 KTAE 220520
TAFVLD
TAF
KVLD 220520Z 2206/2306 VRB03KT P6SM FEW100 SCT250=



000
FTUS42 KTAE 220520
TAFABY
TAF
KABY 220520Z 2206/2306 29006KT P6SM FEW100 SCT250=



000
FTUS42 KTAE 220520
TAFDHN
TAF
KDHN 220520Z 2206/2306 30004KT P6SM FEW100 SCT250
     FM221900 27006KT P6SM FEW030 SCT250=



000
FTUS42 KTAE 220520
TAFDHN
TAF
KDHN 220520Z 2206/2306 30004KT P6SM FEW100 SCT250
     FM221900 27006KT P6SM FEW030 SCT250=



000
FTUS42 KTAE 220520
TAFTLH
TAF
KTLH 220520Z 2206/2306 36004KT P6SM FEW100 SCT250
     FM222000 20009KT P6SM FEW030 SCT250=



000
FTUS42 KTAE 220520
TAFABY
TAF
KABY 220520Z 2206/2306 29006KT P6SM FEW100 SCT250=



000
FTUS42 KTAE 220520
TAFTLH
TAF
KTLH 220520Z 2206/2306 36004KT P6SM FEW100 SCT250
     FM222000 20009KT P6SM FEW030 SCT250=



    US Dept of Commerce
    National Oceanic and Atmospheric Administration
    National Weather Service
    1325 East West Highway
    Silver Spring, MD 20910
    Page Author: NWS Internet Services Team
Disclaimer
Information Quality
Credits
Glossary
Privacy Policy
Freedom of Information Act (FOIA)
About Us
Career Opportunities